Portada
METAR-TAF:

METAR-TAF

Aeroports :

Aeroport d'Auckland

Auckland, Nova Zelanda

latitud: 37-01S, longitud: 174-48E, altitud: 7 m

Observació

L'informe es va fer fa 33 minuts, a les 01:30 UTC
Vent 4 kt del Sud-Oest
Temperatura 15°C
Humitat 72%
Pressió 1032 hPa
Visibilitat 10 km o més

METAR: NZAA 190130Z AUTO 23004KT 9999 BKN048/// BKN065/// 15/10 Q1032

Hora: 14:03 (02:03 UTC)

Pronòstic

L'informe es va fer fa 3 hores i 0 minuts, a les 23:03 UTC
Pronòstic vàlid del 19 a les 00 UTC al 20 a les 00 UTC
Vent 10 kt del Sud/Sud-Oest
Visibilitat 10 km o més
Núvols disperses a una alçada de 2500 ft
Evolucionant progressivament
l' 19 a les 06 UTC al 19 a les 08 UTC
Vent 5 kt del Est/Sud-Est

TAF: NZAA 182303Z 1900/2000 20010KT 9999 SCT025 BECMG 1906/1908 12005KT

Observacions i pronòstics meteorològics de més de 4000 aeroports (METAR i TAF).

Les estacions disponibles són els punts grocs i vermells al mapa.

Posi el ratolí al punt desitjat per veure el nom de l'estació.

Feu clic per veure les observacions i els pronòstics meteorològics.

Per canviar el mapa: feu clic els botons verds amb una creu de color negre per apropar; al botó verd amb un guió per allunyar la imatge; o en les fletxes verdes per a mapes adjacents.


METAR-TAF: